LSGB weather

Bex Airport
Bex, Canton of Vaud, Switzerland

Public forecast

Using degrees Celsius for public forecast. Weather courtesy of forecast.io.

METAR (pilot weather report)

Closest report is Sion Airport, 14.3 nm (26.5 km) E. Retrieved 2019/07/17 03:20 UTC (32 minutes ago):

LSGS 170320Z AUTO VRB02KT CAVOK 16/10 Q1016

TAF (pilot weather forecast)

Forecast is more than 6 hours old.

Closest forecast is Payerne Air Base, 35.2 nm (65.3 km) N. Retrieved 2019/07/16 17:00 UTC (11 hours ago):

TAF LSMP 161625Z 1617/1723 VRB03KT CAVOK